createdAt,value
2018-05-31T00:01:56.432Z,18.17
2018-05-31T00:04:24.706Z,17.50
2018-05-31T00:06:52.975Z,19.70
2018-05-31T00:09:21.247Z,17.50
2018-05-31T00:11:49.543Z,17.47
2018-05-31T00:14:17.797Z,17.03
2018-05-31T00:16:46.056Z,18.07
2018-05-31T00:19:14.357Z,17.20
2018-05-31T00:21:42.624Z,17.70
2018-05-31T00:24:10.900Z,17.90
2018-05-31T00:26:39.160Z,16.70
2018-05-31T00:29:07.459Z,16.63
2018-05-31T00:31:35.716Z,17.07
2018-05-31T00:34:04.972Z,17.77
2018-05-31T00:36:33.227Z,17.03
2018-05-31T00:39:01.581Z,17.07
2018-05-31T00:41:29.836Z,17.00
2018-05-31T00:43:58.093Z,17.37
2018-05-31T00:46:27.123Z,17.57
2018-05-31T00:48:55.375Z,16.23
2018-05-31T00:51:24.935Z,17.73
2018-05-31T00:53:53.175Z,17.53
2018-05-31T00:56:21.451Z,17.67
2018-05-31T00:58:49.732Z,18.97
2018-05-31T01:01:18.003Z,17.40
2018-05-31T01:03:46.381Z,18.30
2018-05-31T01:06:14.647Z,17.77
2018-05-31T01:08:42.891Z,18.07
2018-05-31T01:11:11.904Z,17.23
2018-05-31T01:13:40.304Z,16.97
2018-05-31T01:16:08.549Z,18.07
2018-05-31T01:18:37.690Z,17.37
2018-05-31T01:21:05.953Z,17.43
2018-05-31T01:23:34.199Z,17.87
2018-05-31T01:26:02.498Z,17.67
2018-05-31T01:28:30.767Z,17.03
2018-05-31T01:30:59.043Z,16.30
2018-05-31T01:33:27.319Z,17.70
2018-05-31T01:35:55.598Z,17.13
2018-05-31T01:38:32.713Z,17.50
2018-05-31T01:41:00.962Z,17.27
2018-05-31T01:43:29.248Z,17.60
2018-05-31T01:45:57.515Z,17.67
2018-05-31T01:48:25.774Z,16.77
2018-05-31T01:50:54.026Z,18.27
2018-05-31T01:53:22.282Z,18.00
2018-05-31T01:55:51.328Z,18.70
2018-05-31T01:58:19.607Z,18.90
2018-05-31T02:00:47.851Z,18.03
2018-05-31T02:03:16.103Z,19.17
2018-05-31T02:05:45.112Z,19.70
2018-05-31T02:08:13.377Z,17.20
2018-05-31T02:10:42.412Z,18.47
2018-05-31T02:13:10.682Z,17.60
2018-05-31T02:15:38.931Z,17.93
2018-05-31T02:18:07.240Z,17.73
2018-05-31T02:20:35.487Z,16.17
2018-05-31T02:23:03.786Z,17.50
2018-05-31T02:25:32.058Z,17.87
2018-05-31T02:28:00.323Z,19.27
2018-05-31T02:30:28.611Z,19.37
2018-05-31T02:32:56.890Z,18.60
2018-05-31T02:35:25.168Z,17.77
2018-05-31T02:37:53.535Z,16.57
2018-05-31T02:40:21.815Z,17.00
2018-05-31T02:42:50.179Z,17.90
2018-05-31T02:45:18.436Z,17.63
2018-05-31T02:47:47.447Z,18.63
2018-05-31T02:50:15.741Z,18.77
2018-05-31T02:52:43.987Z,17.17
2018-05-31T02:55:12.243Z,15.77
2018-05-31T02:57:42.103Z,15.70
2018-05-31T03:00:10.357Z,16.10
2018-05-31T03:02:38.602Z,17.20
2018-05-31T03:05:07.628Z,17.57
2018-05-31T03:07:35.875Z,17.33
2018-05-31T03:10:04.955Z,15.20
2018-05-31T03:12:33.303Z,15.03
2018-05-31T03:15:01.568Z,15.80
2018-05-31T03:17:29.823Z,25.97
2018-05-31T03:19:58.123Z,15.77
2018-05-31T03:22:26.395Z,18.03
2018-05-31T03:24:54.662Z,18.33
2018-05-31T03:27:22.944Z,17.23
2018-05-31T03:29:51.195Z,17.47
2018-05-31T03:32:19.435Z,17.10
2018-05-31T03:34:47.766Z,15.37
2018-05-31T03:37:16.052Z,21.40
2018-05-31T03:39:44.324Z,16.80
2018-05-31T03:42:12.594Z,38.53
2018-05-31T03:44:40.846Z,32.87
2018-05-31T03:47:09.148Z,22.80
2018-05-31T03:49:37.402Z,16.00
2018-05-31T03:52:05.644Z,17.93
2018-05-31T03:54:33.900Z,17.03
2018-05-31T03:57:02.147Z,16.70
2018-05-31T03:59:30.426Z,23.60
2018-05-31T04:01:58.703Z,23.00
2018-05-31T04:04:26.967Z,15.80
2018-05-31T04:06:55.251Z,16.43
2018-05-31T04:09:23.522Z,16.17
2018-05-31T04:11:51.783Z,16.87
2018-05-31T04:14:20.030Z,14.00
2018-05-31T04:16:49.091Z,14.50
2018-05-31T04:19:17.340Z,12.87
2018-05-31T04:21:45.618Z,15.40
2018-05-31T04:24:13.864Z,13.53
2018-05-31T04:26:42.171Z,12.07
2018-05-31T04:29:10.420Z,12.43
2018-05-31T04:31:38.730Z,13.47
2018-05-31T04:34:06.999Z,12.50
2018-05-31T04:36:35.263Z,11.73
2018-05-31T04:39:03.515Z,13.13
2018-05-31T04:41:31.771Z,12.60
2018-05-31T04:44:00.012Z,12.40
2018-05-31T04:46:28.371Z,12.40
2018-05-31T04:48:56.654Z,12.47
2018-05-31T04:51:24.923Z,14.53
2018-05-31T04:53:53.168Z,12.83
2018-05-31T04:56:21.471Z,12.50
2018-05-31T04:58:49.723Z,12.17
2018-05-31T05:01:18.749Z,12.13
2018-05-31T05:03:46.991Z,13.17
2018-05-31T05:06:15.245Z,13.47
2018-05-31T05:08:44.260Z,11.43
2018-05-31T05:11:12.507Z,12.40
2018-05-31T05:13:41.511Z,13.90
2018-05-31T05:16:10.538Z,11.70
2018-05-31T05:18:38.818Z,11.93
2018-05-31T05:21:07.097Z,12.67
2018-05-31T05:23:35.383Z,12.30
2018-05-31T05:26:03.640Z,12.27
2018-05-31T05:28:31.923Z,12.20
2018-05-31T05:31:00.195Z,12.67
2018-05-31T05:33:28.467Z,11.47
2018-05-31T05:35:56.706Z,13.27
2018-05-31T05:38:25.731Z,12.67
2018-05-31T05:40:54.167Z,12.30
2018-05-31T05:43:23.208Z,12.50
2018-05-31T05:45:51.487Z,12.23
2018-05-31T05:48:19.760Z,11.50
2018-05-31T05:50:48.008Z,12.20
2018-05-31T05:53:16.255Z,11.37
2018-05-31T05:55:45.299Z,11.40
2018-05-31T05:58:13.555Z,11.80
2018-05-31T06:00:41.858Z,11.40
2018-05-31T06:03:10.130Z,15.60
2018-05-31T06:05:38.380Z,12.20
2018-05-31T06:08:06.651Z,15.33
2018-05-31T06:10:34.956Z,11.70
2018-05-31T06:13:03.228Z,13.47
2018-05-31T06:15:31.525Z,12.50
2018-05-31T06:17:59.782Z,11.93
2018-05-31T06:20:28.026Z,12.17
2018-05-31T06:22:56.282Z,11.87
2018-05-31T06:25:25.327Z,11.53
2018-05-31T06:27:54.979Z,11.40
2018-05-31T06:30:23.310Z,10.03
2018-05-31T06:32:51.568Z,14.00
2018-05-31T06:35:19.858Z,11.53
2018-05-31T06:37:48.139Z,12.13
2018-05-31T06:40:16.387Z,13.53
2018-05-31T06:42:44.638Z,55.77
2018-05-31T06:45:13.655Z,12.60
2018-05-31T06:47:41.906Z,11.57
2018-05-31T06:50:10.955Z,11.10
2018-05-31T06:52:39.206Z,11.50
2018-05-31T06:55:07.500Z,11.63
2018-05-31T06:57:35.772Z,10.83
2018-05-31T07:00:04.013Z,10.60
2018-05-31T07:02:33.019Z,10.07
2018-05-31T07:05:01.270Z,10.53
2018-05-31T07:07:30.312Z,11.97
2018-05-31T07:09:58.582Z,10.23
2018-05-31T07:12:26.856Z,9.77
2018-05-31T07:14:55.161Z,12.53
2018-05-31T07:17:23.406Z,11.53
2018-05-31T07:19:51.687Z,25.97
2018-05-31T07:22:20.571Z,9.87
2018-05-31T07:24:48.819Z,11.50
2018-05-31T07:27:17.846Z,10.97
2018-05-31T07:29:46.070Z,10.83
2018-05-31T07:32:15.111Z,11.40
2018-05-31T07:34:43.357Z,11.13
2018-05-31T07:37:11.600Z,10.70
2018-05-31T07:39:39.855Z,11.00
2018-05-31T07:42:08.095Z,10.87
2018-05-31T07:44:36.384Z,11.97
2018-05-31T07:47:04.627Z,12.40
2018-05-31T07:49:33.651Z,13.80
2018-05-31T07:52:01.934Z,23.20
2018-05-31T07:54:30.199Z,13.43
2018-05-31T07:56:58.475Z,13.07
2018-05-31T07:59:26.730Z,15.60
2018-05-31T08:01:55.081Z,16.87
2018-05-31T08:04:23.334Z,16.47
2018-05-31T08:06:51.591Z,17.03
2018-05-31T08:09:19.839Z,15.37
2018-05-31T08:11:48.132Z,16.80
2018-05-31T08:14:16.384Z,17.47
2018-05-31T08:16:44.683Z,18.80
2018-05-31T08:19:12.957Z,17.60
2018-05-31T08:21:41.242Z,17.83
2018-05-31T08:24:09.610Z,17.20
2018-05-31T08:26:37.858Z,20.73
2018-05-31T08:29:06.462Z,19.53
2018-05-31T08:31:34.754Z,20.17
2018-05-31T08:34:03.740Z,17.60
2018-05-31T08:36:32.016Z,30.33
2018-05-31T08:39:00.333Z,20.17
2018-05-31T08:41:28.561Z,20.60
2018-05-31T08:43:56.812Z,21.40
2018-05-31T08:46:25.058Z,22.67
2018-05-31T08:48:54.078Z,23.03
2018-05-31T08:51:22.387Z,22.27
2018-05-31T08:53:50.636Z,23.77
2018-05-31T08:56:18.892Z,23.30
2018-05-31T08:58:48.745Z,21.67
2018-05-31T09:01:17.010Z,23.03
2018-05-31T09:03:45.299Z,23.50
2018-05-31T09:06:14.026Z,23.90
2018-05-31T09:08:42.246Z,22.50
2018-05-31T09:11:10.508Z,24.30
2018-05-31T09:13:38.807Z,21.70
2018-05-31T09:16:07.063Z,22.27
2018-05-31T09:18:35.311Z,22.90
2018-05-31T09:21:04.334Z,23.30
2018-05-31T09:23:32.578Z,22.87
2018-05-31T09:26:01.605Z,22.90
2018-05-31T09:28:29.916Z,26.07
2018-05-31T09:30:58.167Z,26.07
2018-05-31T09:33:26.492Z,26.77
2018-05-31T09:35:54.828Z,26.93
2018-05-31T09:38:23.355Z,24.57
2018-05-31T09:40:52.373Z,25.30
2018-05-31T09:43:20.886Z,22.70
2018-05-31T09:45:49.163Z,20.80
2018-05-31T09:48:17.408Z,21.00
2018-05-31T09:50:45.706Z,19.63
2018-05-31T09:53:13.978Z,21.87
2018-05-31T09:55:42.298Z,21.37
2018-05-31T09:58:10.726Z,21.80
2018-05-31T10:00:39.011Z,22.23
2018-05-31T10:03:07.258Z,25.97
2018-05-31T10:05:35.508Z,22.90
2018-05-31T10:08:04.559Z,21.53
2018-05-31T10:10:32.812Z,20.60
2018-05-31T10:13:01.069Z,19.77
2018-05-31T10:15:30.083Z,22.30
2018-05-31T10:17:58.340Z,21.43
2018-05-31T10:20:26.590Z,26.87
2018-05-31T10:22:54.918Z,21.93
2018-05-31T10:25:23.172Z,20.67
2018-05-31T10:27:51.475Z,21.37
2018-05-31T10:30:19.720Z,20.93
2018-05-31T10:32:48.027Z,23.43
2018-05-31T10:35:16.641Z,22.97
2018-05-31T10:37:45.708Z,22.93
2018-05-31T10:40:13.955Z,25.23
2018-05-31T10:42:42.207Z,24.03
2018-05-31T10:45:11.222Z,25.70
2018-05-31T10:47:39.476Z,23.73
2018-05-31T10:50:08.643Z,24.70
2018-05-31T10:52:36.891Z,24.63
2018-05-31T10:55:05.141Z,25.83
2018-05-31T10:57:33.443Z,23.60
2018-05-31T11:00:01.711Z,25.43
2018-05-31T11:02:29.963Z,25.23
2018-05-31T11:04:58.988Z,25.07
2018-05-31T11:07:27.235Z,25.57
2018-05-31T11:09:56.271Z,25.20
2018-05-31T11:12:24.525Z,26.93
2018-05-31T11:14:52.795Z,26.87
2018-05-31T11:17:21.808Z,30.53
2018-05-31T11:19:50.053Z,29.33
2018-05-31T11:22:18.355Z,27.23
2018-05-31T11:24:46.611Z,28.63
2018-05-31T11:27:14.860Z,31.27
2018-05-31T11:29:44.010Z,30.33
2018-05-31T11:32:12.251Z,33.03
2018-05-31T11:34:40.567Z,35.40
2018-05-31T11:37:09.528Z,33.57
2018-05-31T11:39:37.819Z,30.77
2018-05-31T11:42:07.019Z,31.43
2018-05-31T11:44:35.295Z,31.50
2018-05-31T11:47:03.553Z,30.90
2018-05-31T11:49:31.843Z,31.80
2018-05-31T11:52:00.087Z,33.90
2018-05-31T11:54:28.399Z,30.23
2018-05-31T11:56:56.642Z,34.13
2018-05-31T11:59:24.948Z,33.33
2018-05-31T12:01:53.246Z,31.60
2018-05-31T12:04:21.602Z,28.47
2018-05-31T12:06:49.850Z,26.87
2018-05-31T12:09:18.107Z,29.33
2018-05-31T12:11:47.119Z,27.57
2018-05-31T12:14:15.384Z,28.83
2018-05-31T12:16:44.407Z,27.30
2018-05-31T12:19:12.732Z,25.87
2018-05-31T12:21:43.458Z,19.40
2018-05-31T12:24:13.236Z,18.33
2018-05-31T12:26:41.492Z,17.47
2018-05-31T12:29:09.780Z,16.60
2018-05-31T12:31:38.024Z,14.63
2018-05-31T12:34:06.329Z,14.27
2018-05-31T12:36:34.613Z,13.57
2018-05-31T12:39:02.866Z,14.03
2018-05-31T12:41:31.167Z,14.03
2018-05-31T12:43:59.535Z,14.97
2018-05-31T12:46:27.783Z,15.40
2018-05-31T12:48:57.494Z,16.33
2018-05-31T12:51:26.504Z,15.33
2018-05-31T12:53:54.746Z,15.13
2018-05-31T12:56:23.775Z,16.27
2018-05-31T12:58:52.019Z,17.20
2018-05-31T13:01:21.053Z,18.43
2018-05-31T13:03:49.295Z,18.57
2018-05-31T13:06:17.599Z,17.23
2018-05-31T13:08:45.852Z,20.63
2018-05-31T13:11:15.032Z,22.20
2018-05-31T13:13:44.067Z,23.73
2018-05-31T13:16:12.314Z,22.40
2018-05-31T13:18:42.415Z,23.50
2018-05-31T13:21:11.431Z,21.10
2018-05-31T13:23:40.038Z,21.23
2018-05-31T13:26:08.283Z,21.63
2018-05-31T13:28:36.531Z,22.97
2018-05-31T13:31:05.617Z,22.80
2018-05-31T13:33:33.851Z,21.60
2018-05-31T13:36:02.511Z,22.07
2018-05-31T13:38:31.538Z,22.23
2018-05-31T13:40:59.791Z,22.43
2018-05-31T13:43:28.047Z,21.10
2018-05-31T13:45:57.066Z,20.83
2018-05-31T13:48:25.331Z,20.67
2018-05-31T13:50:53.631Z,22.03
2018-05-31T13:53:21.895Z,20.80
2018-05-31T13:55:50.218Z,21.93
2018-05-31T13:58:18.506Z,21.10
2018-05-31T14:00:46.760Z,20.43
2018-05-31T14:03:15.103Z,20.47
2018-05-31T14:05:43.424Z,21.50
2018-05-31T14:08:11.654Z,21.40
2018-05-31T14:10:39.915Z,23.33
2018-05-31T14:13:08.164Z,21.00
2018-05-31T14:15:37.305Z,22.53
2018-05-31T14:18:05.554Z,22.63
2018-05-31T14:20:33.799Z,22.00
2018-05-31T14:23:02.134Z,22.50
2018-05-31T14:25:30.399Z,21.93
2018-05-31T14:27:58.679Z,21.23
2018-05-31T14:30:26.923Z,22.17
2018-05-31T14:32:55.178Z,20.63
2018-05-31T14:35:24.215Z,21.63
2018-05-31T14:37:52.471Z,22.17
2018-05-31T14:40:20.736Z,21.70
2018-05-31T14:42:49.828Z,21.13
2018-05-31T14:45:18.839Z,19.23
2018-05-31T14:47:47.091Z,25.47
2018-05-31T14:50:16.134Z,19.23
2018-05-31T14:52:44.387Z,18.87
2018-05-31T14:55:12.627Z,19.37
2018-05-31T14:57:41.735Z,18.87
2018-05-31T15:00:10.771Z,19.87
2018-05-31T15:02:39.047Z,18.57
2018-05-31T15:05:07.292Z,20.37
2018-05-31T15:07:35.546Z,20.10
2018-05-31T15:10:04.607Z,18.90
2018-05-31T15:12:32.967Z,17.00
2018-05-31T15:15:01.207Z,17.43
2018-05-31T15:17:30.227Z,18.47
2018-05-31T15:19:58.475Z,17.30
2018-05-31T15:22:27.605Z,17.27
2018-05-31T15:24:55.855Z,16.60
2018-05-31T15:27:24.147Z,18.90
2018-05-31T15:29:52.392Z,17.57
2018-05-31T15:32:21.418Z,18.90
2018-05-31T15:34:49.671Z,18.43
2018-05-31T15:37:17.923Z,19.40
2018-05-31T15:39:46.943Z,18.20
2018-05-31T15:42:15.210Z,20.03
2018-05-31T15:44:45.008Z,19.60
2018-05-31T15:47:14.050Z,19.87
2018-05-31T15:49:42.297Z,18.77
2018-05-31T15:52:10.591Z,19.87
2018-05-31T15:54:38.895Z,20.13
2018-05-31T15:57:07.189Z,19.97
2018-05-31T15:59:35.415Z,21.20
2018-05-31T16:02:04.515Z,20.03
2018-05-31T16:04:32.772Z,20.60
2018-05-31T16:07:01.021Z,19.23
2018-05-31T16:09:30.043Z,19.83
2018-05-31T16:11:58.283Z,21.10
2018-05-31T16:14:27.298Z,19.77
2018-05-31T16:16:55.598Z,19.83
2018-05-31T16:19:24.158Z,19.63
2018-05-31T16:21:52.455Z,20.00
2018-05-31T16:24:20.736Z,19.67
2018-05-31T16:26:48.983Z,19.63
2018-05-31T16:29:17.278Z,20.47
2018-05-31T16:31:45.535Z,18.53
2018-05-31T16:34:13.839Z,19.30
2018-05-31T16:36:42.083Z,20.30
2018-05-31T16:39:10.392Z,19.57
2018-05-31T16:41:38.651Z,21.50
2018-05-31T16:44:06.890Z,20.67
2018-05-31T16:46:35.904Z,19.83
2018-05-31T16:49:04.317Z,20.43
2018-05-31T16:51:32.580Z,18.73
2018-05-31T16:54:00.826Z,21.57
2018-05-31T16:56:29.855Z,21.47
2018-05-31T16:58:58.107Z,19.47
2018-05-31T17:01:26.406Z,20.03
2018-05-31T17:03:54.661Z,20.07
2018-05-31T17:06:22.960Z,19.90
2018-05-31T17:08:51.206Z,18.33
2018-05-31T17:11:19.454Z,19.83
2018-05-31T17:13:48.495Z,19.30
2018-05-31T17:16:16.744Z,19.07
2018-05-31T17:18:45.755Z,20.07
2018-05-31T17:21:14.011Z,19.20
2018-05-31T17:23:43.018Z,19.40
2018-05-31T17:26:11.323Z,18.67
2018-05-31T17:28:39.641Z,19.03
2018-05-31T17:31:07.872Z,18.97
2018-05-31T17:33:36.270Z,19.10
2018-05-31T17:36:04.498Z,19.43
2018-05-31T17:38:32.807Z,18.60
2018-05-31T17:41:01.063Z,15.67
2018-05-31T17:43:29.807Z,13.57
2018-05-31T17:45:58.075Z,13.67
2018-05-31T17:48:26.411Z,13.30
2018-05-31T17:50:54.667Z,12.63
2018-05-31T17:53:22.959Z,12.97
2018-05-31T17:55:51.243Z,12.57
2018-05-31T17:58:19.515Z,13.17
2018-05-31T18:00:47.771Z,12.80
2018-05-31T18:03:16.027Z,12.73
2018-05-31T18:05:47.005Z,12.17
2018-05-31T18:08:15.279Z,11.73
2018-05-31T18:10:43.536Z,12.77
2018-05-31T18:13:11.783Z,10.17
2018-05-31T18:15:40.800Z,10.40
2018-05-31T18:18:09.043Z,10.47
2018-05-31T18:20:37.292Z,11.03
2018-05-31T18:23:05.532Z,10.03
2018-05-31T18:25:33.783Z,10.23
2018-05-31T18:28:02.020Z,11.00
2018-05-31T18:30:30.378Z,10.43
2018-05-31T18:32:58.647Z,9.63
2018-05-31T18:35:26.942Z,10.70
2018-05-31T18:37:55.183Z,10.30
2018-05-31T18:40:23.460Z,10.33
2018-05-31T18:42:51.694Z,10.30
2018-05-31T18:45:19.935Z,11.17
2018-05-31T18:47:48.199Z,11.47
2018-05-31T18:50:16.479Z,11.53
2018-05-31T18:52:44.740Z,11.03
2018-05-31T18:55:12.982Z,12.23
2018-05-31T18:57:41.238Z,13.37
2018-05-31T19:00:09.587Z,14.13
2018-05-31T19:02:37.839Z,17.63
2018-05-31T19:05:06.088Z,17.97
2018-05-31T19:07:35.103Z,17.27
2018-05-31T19:10:04.231Z,18.10
2018-05-31T19:12:38.187Z,18.97
2018-05-31T19:15:07.239Z,18.53
2018-05-31T19:17:35.498Z,21.30
2018-05-31T19:20:03.751Z,21.63
2018-05-31T19:22:32.004Z,22.37
2018-05-31T19:25:06.747Z,22.10
2018-05-31T19:27:35.820Z,21.70
2018-05-31T19:33:07.967Z,20.93
2018-05-31T19:35:42.090Z,20.17
2018-05-31T19:38:10.353Z,21.87
2018-05-31T19:40:38.594Z,21.33
2018-05-31T19:43:13.334Z,22.20
2018-05-31T19:45:41.643Z,23.57
2018-05-31T19:48:09.907Z,22.73
2018-05-31T19:50:38.156Z,21.73
2018-05-31T19:53:12.928Z,22.67
2018-05-31T19:55:41.190Z,23.20
2018-05-31T19:58:15.095Z,23.70
2018-05-31T20:00:48.971Z,23.53
2018-05-31T20:03:23.707Z,20.43
2018-05-31T20:05:51.953Z,22.90
2018-05-31T20:08:20.203Z,24.00
2018-05-31T20:10:48.446Z,23.33
2018-05-31T20:13:16.750Z,21.23
2018-05-31T20:15:44.989Z,20.20
2018-05-31T20:18:13.244Z,18.20
2018-05-31T20:20:42.328Z,17.97
2018-05-31T20:23:10.552Z,18.63
2018-05-31T20:25:38.811Z,18.50
2018-05-31T20:28:07.051Z,18.73
2018-05-31T20:30:35.409Z,18.60
2018-05-31T20:33:03.659Z,19.33
2018-05-31T20:35:31.948Z,18.20
2018-05-31T20:38:00.210Z,19.17
2018-05-31T20:40:28.478Z,18.57
2018-05-31T20:42:56.755Z,18.37
2018-05-31T20:45:25.038Z,20.50
2018-05-31T20:47:53.283Z,18.57
2018-05-31T20:50:21.534Z,19.57
2018-05-31T20:52:50.551Z,18.47
2018-05-31T20:55:18.806Z,19.70
2018-05-31T20:57:47.822Z,20.87
2018-05-31T21:00:16.127Z,20.03
2018-05-31T21:02:44.396Z,18.73
2018-05-31T21:05:12.675Z,17.40
2018-05-31T21:07:40.951Z,17.57
2018-05-31T21:10:09.207Z,16.33
2018-05-31T21:12:37.512Z,16.47
2018-05-31T21:15:05.763Z,14.47
2018-05-31T21:17:34.045Z,16.07
2018-05-31T21:20:02.329Z,15.67
2018-05-31T21:22:30.545Z,15.23
2018-05-31T21:24:58.875Z,14.80
2018-05-31T21:27:27.157Z,13.90
2018-05-31T21:29:55.406Z,14.83
2018-05-31T21:32:23.742Z,14.40
2018-05-31T21:34:52.079Z,15.23
2018-05-31T21:37:20.329Z,14.73
2018-05-31T21:39:49.451Z,14.17
2018-05-31T21:42:17.731Z,14.33
2018-05-31T21:44:45.988Z,14.70
2018-05-31T21:47:14.252Z,13.60
2018-05-31T21:49:42.511Z,13.13
2018-05-31T21:52:11.528Z,13.47
2018-05-31T21:54:39.782Z,13.77
2018-05-31T21:57:08.797Z,14.37
2018-05-31T21:59:37.087Z,12.10
2018-05-31T22:02:05.334Z,13.30
2018-05-31T22:04:33.595Z,12.07
2018-05-31T22:07:02.603Z,12.47
2018-05-31T22:09:30.887Z,13.20
2018-05-31T22:11:59.193Z,12.90
2018-05-31T22:14:27.439Z,12.57
2018-05-31T22:16:55.693Z,12.63
2018-05-31T22:19:24.728Z,11.90
2018-05-31T22:21:52.988Z,12.17
2018-05-31T22:24:21.228Z,12.03
2018-05-31T22:26:50.255Z,12.47
2018-05-31T22:29:18.503Z,12.77
2018-05-31T22:31:47.557Z,13.47
2018-05-31T22:34:15.814Z,14.90
2018-05-31T22:36:44.054Z,13.80
2018-05-31T22:39:12.303Z,15.03
2018-05-31T22:41:40.550Z,12.87
2018-05-31T22:44:08.794Z,14.10
2018-05-31T22:46:37.063Z,13.93
2018-05-31T22:49:05.308Z,13.37
2018-05-31T22:51:33.561Z,13.87
2018-05-31T22:54:01.816Z,14.03
2018-05-31T22:56:30.095Z,13.03
2018-05-31T22:58:58.367Z,13.60
2018-05-31T23:01:26.643Z,13.30
2018-05-31T23:03:54.905Z,13.73
2018-05-31T23:06:23.159Z,15.00
2018-05-31T23:08:52.186Z,14.73
2018-05-31T23:11:20.441Z,14.13
2018-05-31T23:13:48.695Z,14.17
2018-05-31T23:16:17.717Z,14.03
2018-05-31T23:18:46.015Z,13.97
2018-05-31T23:21:14.266Z,14.00
2018-05-31T23:23:42.552Z,13.77
2018-05-31T23:26:10.807Z,14.00
2018-05-31T23:28:39.102Z,13.93
2018-05-31T23:31:07.356Z,14.57
2018-05-31T23:33:35.606Z,14.43
2018-05-31T23:36:03.931Z,14.43
2018-05-31T23:38:32.526Z,15.23
2018-05-31T23:41:00.746Z,14.03
2018-05-31T23:43:29.758Z,14.13
2018-05-31T23:45:58.007Z,15.47
2018-05-31T23:48:27.039Z,14.33
2018-05-31T23:50:55.319Z,14.00
2018-05-31T23:53:23.605Z,14.47
2018-05-31T23:55:52.093Z,15.37
2018-05-31T23:58:20.762Z,14.70
